sensor_id;sensor_type;location;lat;lon;timestamp;P1;durP1;ratioP1;P2;durP2;ratioP2
26040;SDS011;13816;53.628;9.950;2023-07-20T00:01:17;2.93;;;2.37;;
26040;SDS011;13816;53.628;9.950;2023-07-20T00:03:44;3.10;;;2.30;;
26040;SDS011;13816;53.628;9.950;2023-07-20T00:06:24;4.07;;;2.50;;
26040;SDS011;13816;53.628;9.950;2023-07-20T00:08:55;2.37;;;2.17;;
26040;SDS011;13816;53.628;9.950;2023-07-20T00:11:26;14.77;;;3.23;;
26040;SDS011;13816;53.628;9.950;2023-07-20T00:13:54;3.43;;;2.40;;
26040;SDS011;13816;53.628;9.950;2023-07-20T00:16:22;4.77;;;2.90;;
26040;SDS011;13816;53.628;9.950;2023-07-20T00:18:50;6.33;;;2.80;;
26040;SDS011;13816;53.628;9.950;2023-07-20T00:21:18;3.73;;;2.50;;
26040;SDS011;13816;53.628;9.950;2023-07-20T00:23:46;3.23;;;2.30;;
26040;SDS011;13816;53.628;9.950;2023-07-20T00:26:14;7.30;;;2.50;;
26040;SDS011;13816;53.628;9.950;2023-07-20T00:28:42;5.93;;;2.57;;
26040;SDS011;13816;53.628;9.950;2023-07-20T00:31:11;6.60;;;2.67;;
26040;SDS011;13816;53.628;9.950;2023-07-20T00:33:38;2.83;;;2.53;;
26040;SDS011;13816;53.628;9.950;2023-07-20T00:36:06;4.13;;;2.63;;
26040;SDS011;13816;53.628;9.950;2023-07-20T00:38:34;4.70;;;2.90;;
26040;SDS011;13816;53.628;9.950;2023-07-20T00:41:02;2.97;;;2.67;;
26040;SDS011;13816;53.628;9.950;2023-07-20T00:43:30;6.60;;;2.77;;
26040;SDS011;13816;53.628;9.950;2023-07-20T00:45:58;2.97;;;2.60;;
26040;SDS011;13816;53.628;9.950;2023-07-20T00:48:26;3.93;;;2.70;;
26040;SDS011;13816;53.628;9.950;2023-07-20T00:50:54;5.93;;;2.73;;
26040;SDS011;13816;53.628;9.950;2023-07-20T00:53:25;6.43;;;3.27;;
26040;SDS011;13816;53.628;9.950;2023-07-20T00:55:54;5.10;;;3.77;;
26040;SDS011;13816;53.628;9.950;2023-07-20T00:58:23;4.23;;;2.90;;
26040;SDS011;13816;53.628;9.950;2023-07-20T01:00:51;3.47;;;3.17;;
26040;SDS011;13816;53.628;9.950;2023-07-20T01:03:19;5.47;;;3.57;;
26040;SDS011;13816;53.628;9.950;2023-07-20T01:13:57;7.40;;;3.93;;
26040;SDS011;13816;53.628;9.950;2023-07-20T01:16:25;7.40;;;3.77;;
26040;SDS011;13816;53.628;9.950;2023-07-20T01:18:54;5.67;;;4.00;;
26040;SDS011;13816;53.628;9.950;2023-07-20T01:21:24;5.03;;;3.80;;
26040;SDS011;13816;53.628;9.950;2023-07-20T01:32:05;6.43;;;4.50;;
26040;SDS011;13816;53.628;9.950;2023-07-20T01:34:35;4.97;;;4.40;;
26040;SDS011;13816;53.628;9.950;2023-07-20T01:37:04;5.80;;;4.27;;
26040;SDS011;13816;53.628;9.950;2023-07-20T01:39:33;5.13;;;4.00;;
26040;SDS011;13816;53.628;9.950;2023-07-20T01:42:05;8.47;;;4.33;;
26040;SDS011;13816;53.628;9.950;2023-07-20T01:44:33;4.00;;;3.70;;
26040;SDS011;13816;53.628;9.950;2023-07-20T01:47:03;4.90;;;3.67;;
26040;SDS011;13816;53.628;9.950;2023-07-20T01:49:36;7.63;;;4.23;;
26040;SDS011;13816;53.628;9.950;2023-07-20T01:52:09;5.23;;;3.43;;
26040;SDS011;13816;53.628;9.950;2023-07-20T01:54:38;5.53;;;3.83;;
26040;SDS011;13816;53.628;9.950;2023-07-20T01:57:06;8.83;;;4.33;;
26040;SDS011;13816;53.628;9.950;2023-07-20T01:59:34;4.83;;;4.30;;
26040;SDS011;13816;53.628;9.950;2023-07-20T02:02:04;5.60;;;3.90;;
26040;SDS011;13816;53.628;9.950;2023-07-20T02:04:33;5.80;;;4.67;;
26040;SDS011;13816;53.628;9.950;2023-07-20T02:07:05;4.87;;;4.03;;
26040;SDS011;13816;53.628;9.950;2023-07-20T02:09:41;5.60;;;4.80;;
26040;SDS011;13816;53.628;9.950;2023-07-20T02:12:12;6.43;;;4.03;;
26040;SDS011;13816;53.628;9.950;2023-07-20T02:14:46;4.90;;;4.20;;
26040;SDS011;13816;53.628;9.950;2023-07-20T02:17:17;4.50;;;4.10;;
26040;SDS011;13816;53.628;9.950;2023-07-20T02:19:50;7.50;;;4.43;;
26040;SDS011;13816;53.628;9.950;2023-07-20T02:22:23;6.13;;;4.60;;
26040;SDS011;13816;53.628;9.950;2023-07-20T02:24:54;7.37;;;4.20;;
26040;SDS011;13816;53.628;9.950;2023-07-20T02:27:23;4.97;;;3.90;;
26040;SDS011;13816;53.628;9.950;2023-07-20T02:29:51;5.37;;;3.27;;
26040;SDS011;13816;53.628;9.950;2023-07-20T02:32:23;4.60;;;4.10;;
26040;SDS011;13816;53.628;9.950;2023-07-20T02:34:58;4.17;;;3.80;;
26040;SDS011;13816;53.628;9.950;2023-07-20T02:37:26;4.60;;;4.10;;
26040;SDS011;13816;53.628;9.950;2023-07-20T02:39:54;4.30;;;3.90;;
26040;SDS011;13816;53.628;9.950;2023-07-20T02:42:22;5.40;;;3.50;;
26040;SDS011;13816;53.628;9.950;2023-07-20T02:44:54;5.53;;;3.47;;
26040;SDS011;13816;53.628;9.950;2023-07-20T02:47:22;6.73;;;4.30;;
26040;SDS011;13816;53.628;9.950;2023-07-20T02:49:49;4.33;;;3.60;;
26040;SDS011;13816;53.628;9.950;2023-07-20T02:52:17;9.00;;;4.00;;
26040;SDS011;13816;53.628;9.950;2023-07-20T02:54:48;4.67;;;4.17;;
26040;SDS011;13816;53.628;9.950;2023-07-20T02:57:16;5.00;;;4.50;;
26040;SDS011;13816;53.628;9.950;2023-07-20T02:59:43;5.07;;;4.57;;
26040;SDS011;13816;53.628;9.950;2023-07-20T03:02:13;6.13;;;5.10;;
26040;SDS011;13816;53.628;9.950;2023-07-20T03:04:44;5.00;;;4.30;;
26040;SDS011;13816;53.628;9.950;2023-07-20T03:07:14;8.70;;;4.50;;
26040;SDS011;13816;53.628;9.950;2023-07-20T03:09:44;5.60;;;4.07;;
26040;SDS011;13816;53.628;9.950;2023-07-20T03:12:13;4.73;;;4.30;;
26040;SDS011;13816;53.628;9.950;2023-07-20T03:14:43;5.57;;;4.93;;
26040;SDS011;13816;53.628;9.950;2023-07-20T03:17:11;5.33;;;4.83;;
26040;SDS011;13816;53.628;9.950;2023-07-20T03:19:39;6.50;;;5.27;;
26040;SDS011;13816;53.628;9.950;2023-07-20T03:22:07;5.10;;;4.70;;
26040;SDS011;13816;53.628;9.950;2023-07-20T03:24:34;5.63;;;5.13;;
26040;SDS011;13816;53.628;9.950;2023-07-20T03:27:02;5.20;;;4.70;;
26040;SDS011;13816;53.628;9.950;2023-07-20T03:29:32;6.20;;;5.10;;
26040;SDS011;13816;53.628;9.950;2023-07-20T03:32:00;5.40;;;4.90;;
26040;SDS011;13816;53.628;9.950;2023-07-20T03:34:28;5.43;;;4.53;;
26040;SDS011;13816;53.628;9.950;2023-07-20T03:36:58;5.67;;;4.50;;
26040;SDS011;13816;53.628;9.950;2023-07-20T03:39:27;4.73;;;4.03;;
26040;SDS011;13816;53.628;9.950;2023-07-20T03:41:54;4.43;;;4.03;;
26040;SDS011;13816;53.628;9.950;2023-07-20T03:44:21;5.30;;;4.20;;
26040;SDS011;13816;53.628;9.950;2023-07-20T03:46:50;6.60;;;4.47;;
26040;SDS011;13816;53.628;9.950;2023-07-20T03:49:17;8.13;;;3.43;;
26040;SDS011;13816;53.628;9.950;2023-07-20T03:51:45;5.73;;;4.00;;
26040;SDS011;13816;53.628;9.950;2023-07-20T03:54:12;4.27;;;3.87;;
26040;SDS011;13816;53.628;9.950;2023-07-20T03:56:40;4.97;;;4.20;;
26040;SDS011;13816;53.628;9.950;2023-07-20T03:59:08;4.10;;;3.70;;
26040;SDS011;13816;53.628;9.950;2023-07-20T04:01:35;3.73;;;3.43;;
26040;SDS011;13816;53.628;9.950;2023-07-20T04:04:06;4.70;;;3.93;;
26040;SDS011;13816;53.628;9.950;2023-07-20T04:06:34;3.93;;;3.63;;
26040;SDS011;13816;53.628;9.950;2023-07-20T04:09:02;4.50;;;4.03;;
26040;SDS011;13816;53.628;9.950;2023-07-20T04:11:31;3.87;;;3.57;;
26040;SDS011;13816;53.628;9.950;2023-07-20T04:13:59;4.00;;;3.70;;
26040;SDS011;13816;53.628;9.950;2023-07-20T04:16:26;5.80;;;4.00;;
26040;SDS011;13816;53.628;9.950;2023-07-20T04:18:55;3.80;;;3.50;;
26040;SDS011;13816;53.628;9.950;2023-07-20T04:21:26;9.97;;;3.47;;
26040;SDS011;13816;53.628;9.950;2023-07-20T04:23:54;7.53;;;3.87;;
26040;SDS011;13816;53.628;9.950;2023-07-20T04:26:23;4.03;;;3.70;;
26040;SDS011;13816;53.628;9.950;2023-07-20T04:28:51;3.80;;;3.50;;
26040;SDS011;13816;53.628;9.950;2023-07-20T04:31:31;3.50;;;3.10;;
26040;SDS011;13816;53.628;9.950;2023-07-20T04:33:59;4.00;;;3.40;;
26040;SDS011;13816;53.628;9.950;2023-07-20T04:36:28;5.60;;;3.97;;
26040;SDS011;13816;53.628;9.950;2023-07-20T04:38:56;4.63;;;3.80;;
26040;SDS011;13816;53.628;9.950;2023-07-20T04:41:23;4.10;;;3.73;;
26040;SDS011;13816;53.628;9.950;2023-07-20T04:43:54;3.70;;;3.37;;
26040;SDS011;13816;53.628;9.950;2023-07-20T04:46:31;4.17;;;3.63;;
26040;SDS011;13816;53.628;9.950;2023-07-20T04:49:01;4.63;;;3.10;;
26040;SDS011;13816;53.628;9.950;2023-07-20T04:51:31;8.90;;;3.50;;
26040;SDS011;13816;53.628;9.950;2023-07-20T04:53:59;3.97;;;3.57;;
26040;SDS011;13816;53.628;9.950;2023-07-20T04:56:31;3.20;;;2.90;;
26040;SDS011;13816;53.628;9.950;2023-07-20T04:59:01;4.33;;;3.20;;
26040;SDS011;13816;53.628;9.950;2023-07-20T05:01:28;3.63;;;3.30;;
26040;SDS011;13816;53.628;9.950;2023-07-20T05:03:56;3.43;;;3.13;;
26040;SDS011;13816;53.628;9.950;2023-07-20T05:06:24;3.87;;;3.20;;
26040;SDS011;13816;53.628;9.950;2023-07-20T05:08:55;5.40;;;3.77;;
26040;SDS011;13816;53.628;9.950;2023-07-20T05:11:23;4.83;;;3.60;;
26040;SDS011;13816;53.628;9.950;2023-07-20T05:13:50;3.20;;;2.90;;
26040;SDS011;13816;53.628;9.950;2023-07-20T05:16:18;6.90;;;3.80;;
26040;SDS011;13816;53.628;9.950;2023-07-20T05:18:48;5.00;;;3.30;;
26040;SDS011;13816;53.628;9.950;2023-07-20T05:21:16;4.77;;;3.60;;
26040;SDS011;13816;53.628;9.950;2023-07-20T05:23:43;4.07;;;3.10;;
26040;SDS011;13816;53.628;9.950;2023-07-20T05:26:13;4.90;;;3.27;;
26040;SDS011;13816;53.628;9.950;2023-07-20T05:28:40;6.43;;;3.87;;
26040;SDS011;13816;53.628;9.950;2023-07-20T05:31:08;3.60;;;3.30;;
26040;SDS011;13816;53.628;9.950;2023-07-20T05:33:35;5.00;;;3.43;;
26040;SDS011;13816;53.628;9.950;2023-07-20T05:36:03;7.50;;;3.80;;
26040;SDS011;13816;53.628;9.950;2023-07-20T05:38:31;5.40;;;3.40;;
26040;SDS011;13816;53.628;9.950;2023-07-20T05:40:59;4.90;;;3.50;;
26040;SDS011;13816;53.628;9.950;2023-07-20T05:43:28;4.77;;;3.67;;
26040;SDS011;13816;53.628;9.950;2023-07-20T05:45:55;6.83;;;3.50;;
26040;SDS011;13816;53.628;9.950;2023-07-20T05:48:23;5.67;;;3.90;;
26040;SDS011;13816;53.628;9.950;2023-07-20T05:50:51;4.30;;;3.13;;
26040;SDS011;13816;53.628;9.950;2023-07-20T05:53:18;8.13;;;3.47;;
26040;SDS011;13816;53.628;9.950;2023-07-20T05:55:51;5.60;;;3.00;;
26040;SDS011;13816;53.628;9.950;2023-07-20T05:58:19;5.20;;;3.03;;
26040;SDS011;13816;53.628;9.950;2023-07-20T06:00:49;3.20;;;2.30;;
26040;SDS011;13816;53.628;9.950;2023-07-20T06:03:20;3.47;;;2.40;;
26040;SDS011;13816;53.628;9.950;2023-07-20T06:05:48;6.90;;;2.50;;
26040;SDS011;13816;53.628;9.950;2023-07-20T06:08:22;4.27;;;2.63;;
26040;SDS011;13816;53.628;9.950;2023-07-20T06:10:50;1.97;;;1.67;;
26040;SDS011;13816;53.628;9.950;2023-07-20T06:13:18;4.10;;;2.23;;
26040;SDS011;13816;53.628;9.950;2023-07-20T06:15:45;3.83;;;2.30;;
26040;SDS011;13816;53.628;9.950;2023-07-20T06:18:13;2.90;;;2.30;;
26040;SDS011;13816;53.628;9.950;2023-07-20T06:20:41;3.93;;;2.00;;
26040;SDS011;13816;53.628;9.950;2023-07-20T06:23:09;5.53;;;2.57;;
26040;SDS011;13816;53.628;9.950;2023-07-20T06:25:36;6.83;;;2.30;;
26040;SDS011;13816;53.628;9.950;2023-07-20T06:28:04;3.77;;;2.30;;
26040;SDS011;13816;53.628;9.950;2023-07-20T06:30:33;6.10;;;2.40;;
26040;SDS011;13816;53.628;9.950;2023-07-20T06:33:01;2.63;;;1.80;;
26040;SDS011;13816;53.628;9.950;2023-07-20T06:35:28;5.50;;;2.07;;
26040;SDS011;13816;53.628;9.950;2023-07-20T06:37:59;12.60;;;2.73;;
26040;SDS011;13816;53.628;9.950;2023-07-20T06:40:47;2.97;;;1.80;;
26040;SDS011;13816;53.628;9.950;2023-07-20T06:43:14;3.90;;;1.93;;
26040;SDS011;13816;53.628;9.950;2023-07-20T06:45:45;5.67;;;1.90;;
26040;SDS011;13816;53.628;9.950;2023-07-20T06:48:18;5.57;;;2.17;;
26040;SDS011;13816;53.628;9.950;2023-07-20T06:50:46;3.40;;;1.60;;
26040;SDS011;13816;53.628;9.950;2023-07-20T06:53:13;3.30;;;1.67;;
26040;SDS011;13816;53.628;9.950;2023-07-20T06:55:44;3.77;;;1.70;;
26040;SDS011;13816;53.628;9.950;2023-07-20T06:58:16;4.00;;;2.03;;
26040;SDS011;13816;53.628;9.950;2023-07-20T07:00:44;5.03;;;1.80;;
26040;SDS011;13816;53.628;9.950;2023-07-20T07:03:12;6.17;;;1.70;;
26040;SDS011;13816;53.628;9.950;2023-07-20T07:05:39;4.07;;;1.90;;
26040;SDS011;13816;53.628;9.950;2023-07-20T07:08:07;4.13;;;1.80;;
26040;SDS011;13816;53.628;9.950;2023-07-20T07:10:35;3.90;;;1.83;;
26040;SDS011;13816;53.628;9.950;2023-07-20T07:13:02;4.70;;;2.33;;
26040;SDS011;13816;53.628;9.950;2023-07-20T07:15:31;8.03;;;3.00;;
26040;SDS011;13816;53.628;9.950;2023-07-20T07:17:59;2.90;;;1.70;;
26040;SDS011;13816;53.628;9.950;2023-07-20T07:20:26;12.00;;;2.00;;
26040;SDS011;13816;53.628;9.950;2023-07-20T07:22:54;5.50;;;1.60;;
26040;SDS011;13816;53.628;9.950;2023-07-20T07:25:24;5.33;;;1.80;;
26040;SDS011;13816;53.628;9.950;2023-07-20T07:27:52;5.20;;;1.80;;
26040;SDS011;13816;53.628;9.950;2023-07-20T07:30:20;6.07;;;2.20;;
26040;SDS011;13816;53.628;9.950;2023-07-20T07:32:49;5.37;;;1.60;;
26040;SDS011;13816;53.628;9.950;2023-07-20T07:35:17;3.73;;;1.70;;
26040;SDS011;13816;53.628;9.950;2023-07-20T07:37:47;4.30;;;2.07;;
26040;SDS011;13816;53.628;9.950;2023-07-20T07:40:32;3.97;;;1.80;;
26040;SDS011;13816;53.628;9.950;2023-07-20T07:43:00;4.37;;;1.70;;
26040;SDS011;13816;53.628;9.950;2023-07-20T07:45:28;4.80;;;2.13;;
26040;SDS011;13816;53.628;9.950;2023-07-20T07:47:56;5.63;;;2.80;;
26040;SDS011;13816;53.628;9.950;2023-07-20T07:50:23;4.40;;;1.90;;
26040;SDS011;13816;53.628;9.950;2023-07-20T07:52:52;6.20;;;2.73;;
26040;SDS011;13816;53.628;9.950;2023-07-20T07:55:19;7.70;;;2.60;;
26040;SDS011;13816;53.628;9.950;2023-07-20T07:57:47;7.70;;;2.33;;
26040;SDS011;13816;53.628;9.950;2023-07-20T08:00:14;8.33;;;2.47;;
26040;SDS011;13816;53.628;9.950;2023-07-20T08:02:45;5.50;;;2.40;;
26040;SDS011;13816;53.628;9.950;2023-07-20T08:05:14;6.07;;;2.83;;
26040;SDS011;13816;53.628;9.950;2023-07-20T08:07:42;5.10;;;3.00;;
26040;SDS011;13816;53.628;9.950;2023-07-20T08:10:10;5.20;;;2.80;;
26040;SDS011;13816;53.628;9.950;2023-07-20T08:12:37;9.17;;;2.80;;
26040;SDS011;13816;53.628;9.950;2023-07-20T08:15:05;4.03;;;2.30;;
26040;SDS011;13816;53.628;9.950;2023-07-20T08:17:32;7.33;;;2.27;;
26040;SDS011;13816;53.628;9.950;2023-07-20T08:20:00;7.53;;;2.90;;
26040;SDS011;13816;53.628;9.950;2023-07-20T08:22:28;7.07;;;2.10;;
26040;SDS011;13816;53.628;9.950;2023-07-20T08:24:55;3.93;;;2.47;;
26040;SDS011;13816;53.628;9.950;2023-07-20T08:27:23;11.77;;;2.67;;
26040;SDS011;13816;53.628;9.950;2023-07-20T08:29:50;9.00;;;2.70;;
26040;SDS011;13816;53.628;9.950;2023-07-20T08:32:17;5.47;;;1.83;;
26040;SDS011;13816;53.628;9.950;2023-07-20T08:34:45;6.93;;;2.27;;
26040;SDS011;13816;53.628;9.950;2023-07-20T08:37:13;14.23;;;2.60;;
26040;SDS011;13816;53.628;9.950;2023-07-20T08:39:40;9.50;;;1.93;;
26040;SDS011;13816;53.628;9.950;2023-07-20T08:42:08;5.33;;;2.10;;
26040;SDS011;13816;53.628;9.950;2023-07-20T08:44:37;6.70;;;2.27;;
26040;SDS011;13816;53.628;9.950;2023-07-20T08:47:05;6.70;;;2.10;;
26040;SDS011;13816;53.628;9.950;2023-07-20T08:49:33;10.27;;;2.80;;
26040;SDS011;13816;53.628;9.950;2023-07-20T08:52:01;6.17;;;2.20;;
26040;SDS011;13816;53.628;9.950;2023-07-20T08:54:29;7.50;;;2.40;;
26040;SDS011;13816;53.628;9.950;2023-07-20T08:57:01;11.70;;;2.97;;
26040;SDS011;13816;53.628;9.950;2023-07-20T08:59:29;7.57;;;3.27;;
26040;SDS011;13816;53.628;9.950;2023-07-20T09:01:57;10.10;;;2.40;;
26040;SDS011;13816;53.628;9.950;2023-07-20T09:04:25;5.80;;;2.40;;
26040;SDS011;13816;53.628;9.950;2023-07-20T09:06:52;10.63;;;2.93;;
26040;SDS011;13816;53.628;9.950;2023-07-20T09:09:20;6.00;;;2.30;;
26040;SDS011;13816;53.628;9.950;2023-07-20T09:11:48;11.40;;;2.10;;
26040;SDS011;13816;53.628;9.950;2023-07-20T09:14:16;5.07;;;2.20;;
26040;SDS011;13816;53.628;9.950;2023-07-20T09:16:52;7.00;;;1.80;;
26040;SDS011;13816;53.628;9.950;2023-07-20T09:19:20;4.70;;;1.53;;
26040;SDS011;13816;53.628;9.950;2023-07-20T09:21:48;6.93;;;1.73;;
26040;SDS011;13816;53.628;9.950;2023-07-20T09:24:17;5.67;;;1.27;;
26040;SDS011;13816;53.628;9.950;2023-07-20T09:26:45;5.03;;;1.40;;
26040;SDS011;13816;53.628;9.950;2023-07-20T09:29:17;5.67;;;1.60;;
26040;SDS011;13816;53.628;9.950;2023-07-20T09:32:06;8.67;;;1.70;;
26040;SDS011;13816;53.628;9.950;2023-07-20T09:34:32;6.47;;;1.27;;
26040;SDS011;13816;53.628;9.950;2023-07-20T09:37:03;7.73;;;1.90;;
26040;SDS011;13816;53.628;9.950;2023-07-20T09:39:31;3.90;;;1.30;;
26040;SDS011;13816;53.628;9.950;2023-07-20T09:42:02;3.83;;;1.30;;
26040;SDS011;13816;53.628;9.950;2023-07-20T09:44:34;5.67;;;1.80;;
26040;SDS011;13816;53.628;9.950;2023-07-20T09:47:04;4.00;;;1.33;;
26040;SDS011;13816;53.628;9.950;2023-07-20T09:49:32;4.63;;;1.20;;
26040;SDS011;13816;53.628;9.950;2023-07-20T09:52:03;3.27;;;1.17;;
26040;SDS011;13816;53.628;9.950;2023-07-20T09:54:30;6.77;;;1.60;;
26040;SDS011;13816;53.628;9.950;2023-07-20T09:56:58;2.70;;;1.30;;
26040;SDS011;13816;53.628;9.950;2023-07-20T09:59:30;4.83;;;1.17;;
26040;SDS011;13816;53.628;9.950;2023-07-20T10:01:58;4.00;;;1.20;;
26040;SDS011;13816;53.628;9.950;2023-07-20T10:04:27;4.50;;;1.00;;
26040;SDS011;13816;53.628;9.950;2023-07-20T10:06:56;3.57;;;1.40;;
26040;SDS011;13816;53.628;9.950;2023-07-20T10:09:26;6.47;;;1.40;;
26040;SDS011;13816;53.628;9.950;2023-07-20T10:11:55;4.80;;;1.17;;
26040;SDS011;13816;53.628;9.950;2023-07-20T10:14:41;1.87;;;0.80;;
26040;SDS011;13816;53.628;9.950;2023-07-20T10:17:12;2.50;;;1.00;;
26040;SDS011;13816;53.628;9.950;2023-07-20T10:19:44;5.97;;;1.40;;
26040;SDS011;13816;53.628;9.950;2023-07-20T10:22:24;4.13;;;1.23;;
26040;SDS011;13816;53.628;9.950;2023-07-20T10:24:53;5.37;;;1.20;;
26040;SDS011;13816;53.628;9.950;2023-07-20T10:27:21;4.80;;;1.27;;
26040;SDS011;13816;53.628;9.950;2023-07-20T10:29:48;9.23;;;1.67;;
26040;SDS011;13816;53.628;9.950;2023-07-20T10:32:16;3.73;;;1.63;;
26040;SDS011;13816;53.628;9.950;2023-07-20T10:34:52;6.47;;;2.20;;
26040;SDS011;13816;53.628;9.950;2023-07-20T10:42:56;8.53;;;1.37;;
26040;SDS011;13816;53.628;9.950;2023-07-20T10:45:34;13.70;;;1.30;;
26040;SDS011;13816;53.628;9.950;2023-07-20T10:48:05;9.03;;;1.27;;
26040;SDS011;13816;53.628;9.950;2023-07-20T10:50:33;4.97;;;1.23;;
26040;SDS011;13816;53.628;9.950;2023-07-20T10:53:14;2.37;;;0.97;;
26040;SDS011;13816;53.628;9.950;2023-07-20T10:55:44;5.50;;;1.00;;
26040;SDS011;13816;53.628;9.950;2023-07-20T10:58:17;2.83;;;1.03;;
26040;SDS011;13816;53.628;9.950;2023-07-20T11:00:56;3.07;;;1.20;;
26040;SDS011;13816;53.628;9.950;2023-07-20T11:03:29;2.57;;;0.70;;
26040;SDS011;13816;53.628;9.950;2023-07-20T11:08:47;5.13;;;1.47;;
26040;SDS011;13816;53.628;9.950;2023-07-20T11:11:23;5.20;;;1.23;;
26040;SDS011;13816;53.628;9.950;2023-07-20T11:13:55;9.23;;;1.47;;
26040;SDS011;13816;53.628;9.950;2023-07-20T11:19:00;3.13;;;1.20;;
26040;SDS011;13816;53.628;9.950;2023-07-20T11:21:28;1.43;;;0.70;;
26040;SDS011;13816;53.628;9.950;2023-07-20T11:23:56;5.77;;;1.77;;
26040;SDS011;13816;53.628;9.950;2023-07-20T11:26:23;3.47;;;0.97;;
26040;SDS011;13816;53.628;9.950;2023-07-20T11:28:51;2.10;;;1.00;;
26040;SDS011;13816;53.628;9.950;2023-07-20T11:31:19;2.10;;;1.00;;
26040;SDS011;13816;53.628;9.950;2023-07-20T11:33:46;5.13;;;0.90;;
26040;SDS011;13816;53.628;9.950;2023-07-20T11:36:14;2.50;;;0.90;;
26040;SDS011;13816;53.628;9.950;2023-07-20T11:38:45;1.40;;;0.80;;
26040;SDS011;13816;53.628;9.950;2023-07-20T11:41:13;3.93;;;0.90;;
26040;SDS011;13816;53.628;9.950;2023-07-20T11:43:46;2.40;;;1.10;;
26040;SDS011;13816;53.628;9.950;2023-07-20T11:46:14;2.43;;;0.90;;
26040;SDS011;13816;53.628;9.950;2023-07-20T11:48:42;1.47;;;0.90;;
26040;SDS011;13816;53.628;9.950;2023-07-20T11:51:13;3.90;;;1.20;;
26040;SDS011;13816;53.628;9.950;2023-07-20T11:53:43;1.30;;;0.77;;
26040;SDS011;13816;53.628;9.950;2023-07-20T11:56:12;1.77;;;0.77;;
26040;SDS011;13816;53.628;9.950;2023-07-20T11:58:43;4.20;;;1.10;;
26040;SDS011;13816;53.628;9.950;2023-07-20T12:01:14;4.27;;;1.13;;
26040;SDS011;13816;53.628;9.950;2023-07-20T12:03:42;4.23;;;1.40;;
26040;SDS011;13816;53.628;9.950;2023-07-20T12:06:12;6.17;;;1.20;;
26040;SDS011;13816;53.628;9.950;2023-07-20T12:08:43;4.10;;;1.57;;
26040;SDS011;13816;53.628;9.950;2023-07-20T12:11:11;4.00;;;1.40;;
26040;SDS011;13816;53.628;9.950;2023-07-20T12:13:44;11.17;;;1.73;;
26040;SDS011;13816;53.628;9.950;2023-07-20T12:16:15;4.60;;;1.20;;
26040;SDS011;13816;53.628;9.950;2023-07-20T12:18:43;4.73;;;1.43;;
26040;SDS011;13816;53.628;9.950;2023-07-20T12:21:13;2.10;;;0.93;;
26040;SDS011;13816;53.628;9.950;2023-07-20T12:23:41;4.70;;;1.67;;
26040;SDS011;13816;53.628;9.950;2023-07-20T12:26:10;5.97;;;1.70;;
26040;SDS011;13816;53.628;9.950;2023-07-20T12:28:40;5.20;;;1.50;;
26040;SDS011;13816;53.628;9.950;2023-07-20T12:31:08;3.40;;;1.37;;
26040;SDS011;13816;53.628;9.950;2023-07-20T12:33:37;4.60;;;1.20;;
26040;SDS011;13816;53.628;9.950;2023-07-20T12:36:04;8.40;;;1.60;;
26040;SDS011;13816;53.628;9.950;2023-07-20T12:38:32;9.00;;;2.10;;
26040;SDS011;13816;53.628;9.950;2023-07-20T12:41:00;7.80;;;1.40;;
26040;SDS011;13816;53.628;9.950;2023-07-20T12:43:28;9.07;;;1.80;;
26040;SDS011;13816;53.628;9.950;2023-07-20T12:45:56;7.67;;;1.60;;
26040;SDS011;13816;53.628;9.950;2023-07-20T12:48:23;10.33;;;1.63;;
26040;SDS011;13816;53.628;9.950;2023-07-20T12:50:51;3.30;;;1.40;;
26040;SDS011;13816;53.628;9.950;2023-07-20T12:53:18;3.87;;;1.53;;
26040;SDS011;13816;53.628;9.950;2023-07-20T12:55:46;5.40;;;1.17;;
26040;SDS011;13816;53.628;9.950;2023-07-20T12:58:13;8.00;;;1.40;;
26040;SDS011;13816;53.628;9.950;2023-07-20T13:00:41;4.47;;;1.00;;
26040;SDS011;13816;53.628;9.950;2023-07-20T13:03:09;6.07;;;1.67;;
26040;SDS011;13816;53.628;9.950;2023-07-20T13:05:55;3.50;;;1.33;;
26040;SDS011;13816;53.628;9.950;2023-07-20T13:08:25;2.50;;;1.20;;
26040;SDS011;13816;53.628;9.950;2023-07-20T13:10:53;7.40;;;1.20;;
26040;SDS011;13816;53.628;9.950;2023-07-20T13:13:21;3.60;;;1.00;;
26040;SDS011;13816;53.628;9.950;2023-07-20T13:15:48;2.33;;;1.13;;
26040;SDS011;13816;53.628;9.950;2023-07-20T13:18:16;2.03;;;0.80;;
26040;SDS011;13816;53.628;9.950;2023-07-20T13:20:45;3.20;;;1.23;;
26040;SDS011;13816;53.628;9.950;2023-07-20T13:23:12;2.80;;;1.07;;
26040;SDS011;13816;53.628;9.950;2023-07-20T13:25:40;5.03;;;1.20;;
26040;SDS011;13816;53.628;9.950;2023-07-20T13:28:09;3.63;;;1.20;;
26040;SDS011;13816;53.628;9.950;2023-07-20T13:30:38;5.20;;;1.10;;
26040;SDS011;13816;53.628;9.950;2023-07-20T13:33:06;4.20;;;1.00;;
26040;SDS011;13816;53.628;9.950;2023-07-20T13:35:34;3.90;;;1.10;;
26040;SDS011;13816;53.628;9.950;2023-07-20T13:38:05;10.03;;;1.30;;
26040;SDS011;13816;53.628;9.950;2023-07-20T13:40:33;4.60;;;1.37;;
26040;SDS011;13816;53.628;9.950;2023-07-20T13:43:02;6.03;;;1.53;;
26040;SDS011;13816;53.628;9.950;2023-07-20T13:45:30;5.30;;;1.17;;
26040;SDS011;13816;53.628;9.950;2023-07-20T13:47:58;3.63;;;0.90;;
26040;SDS011;13816;53.628;9.950;2023-07-20T13:50:29;1.87;;;1.00;;
26040;SDS011;13816;53.628;9.950;2023-07-20T13:53:07;3.53;;;1.47;;
26040;SDS011;13816;53.628;9.950;2023-07-20T13:55:38;5.97;;;1.57;;
26040;SDS011;13816;53.628;9.950;2023-07-20T13:58:08;1.83;;;0.87;;
26040;SDS011;13816;53.628;9.950;2023-07-20T14:00:39;2.07;;;1.03;;
26040;SDS011;13816;53.628;9.950;2023-07-20T14:03:09;2.70;;;1.30;;
26040;SDS011;13816;53.628;9.950;2023-07-20T14:05:39;2.90;;;1.07;;
26040;SDS011;13816;53.628;9.950;2023-07-20T14:08:10;3.60;;;1.00;;
26040;SDS011;13816;53.628;9.950;2023-07-20T14:10:37;3.23;;;1.10;;
26040;SDS011;13816;53.628;9.950;2023-07-20T14:13:08;3.67;;;1.07;;
26040;SDS011;13816;53.628;9.950;2023-07-20T14:15:36;3.43;;;1.23;;
26040;SDS011;13816;53.628;9.950;2023-07-20T14:18:07;4.57;;;1.27;;
26040;SDS011;13816;53.628;9.950;2023-07-20T14:20:35;1.93;;;1.10;;
26040;SDS011;13816;53.628;9.950;2023-07-20T14:23:04;5.20;;;1.23;;
26040;SDS011;13816;53.628;9.950;2023-07-20T14:25:32;4.50;;;1.10;;
26040;SDS011;13816;53.628;9.950;2023-07-20T14:28:03;6.17;;;1.03;;
26040;SDS011;13816;53.628;9.950;2023-07-20T14:30:31;3.33;;;1.00;;
26040;SDS011;13816;53.628;9.950;2023-07-20T14:32:58;3.53;;;0.90;;
26040;SDS011;13816;53.628;9.950;2023-07-20T14:35:26;2.83;;;1.30;;
26040;SDS011;13816;53.628;9.950;2023-07-20T14:37:54;2.57;;;0.90;;
26040;SDS011;13816;53.628;9.950;2023-07-20T14:40:21;4.20;;;1.20;;
26040;SDS011;13816;53.628;9.950;2023-07-20T14:42:49;2.33;;;1.00;;
26040;SDS011;13816;53.628;9.950;2023-07-20T14:45:22;1.83;;;0.90;;
26040;SDS011;13816;53.628;9.950;2023-07-20T14:47:50;3.97;;;1.30;;
26040;SDS011;13816;53.628;9.950;2023-07-20T14:50:20;2.43;;;1.00;;
26040;SDS011;13816;53.628;9.950;2023-07-20T14:52:48;3.43;;;1.10;;
26040;SDS011;13816;53.628;9.950;2023-07-20T14:55:16;3.70;;;1.60;;
26040;SDS011;13816;53.628;9.950;2023-07-20T14:57:43;3.00;;;1.03;;
26040;SDS011;13816;53.628;9.950;2023-07-20T15:00:11;4.07;;;1.40;;
26040;SDS011;13816;53.628;9.950;2023-07-20T15:02:39;4.87;;;1.20;;
26040;SDS011;13816;53.628;9.950;2023-07-20T15:05:07;3.33;;;1.50;;
26040;SDS011;13816;53.628;9.950;2023-07-20T15:07:35;4.87;;;1.20;;
26040;SDS011;13816;53.628;9.950;2023-07-20T15:10:03;3.13;;;1.50;;
26040;SDS011;13816;53.628;9.950;2023-07-20T15:12:31;2.63;;;1.20;;
26040;SDS011;13816;53.628;9.950;2023-07-20T15:15:06;10.40;;;1.30;;
26040;SDS011;13816;53.628;9.950;2023-07-20T15:17:58;4.17;;;1.47;;
26040;SDS011;13816;53.628;9.950;2023-07-20T15:20:50;5.10;;;1.57;;
26040;SDS011;13816;53.628;9.950;2023-07-20T15:23:24;5.40;;;1.63;;
26040;SDS011;13816;53.628;9.950;2023-07-20T15:26:15;6.10;;;1.43;;
26040;SDS011;13816;53.628;9.950;2023-07-20T15:28:43;2.40;;;1.10;;